Paducah, Texas
Current Conditions -  °F | °C
As of 4:17 AM on Saturday 20 Dec 2014 (Local Time) from KCDS Reporting Station
Overcast Overcast  
Wind Chill: 39°   Ceiling: 1800
Heat Index: 42°   Visibility: 10mi
Dew Point: 38°   Wind: 5mph
Humidity: 85%   Direction: 190°S
Pressure: 30.18"   Gusts: NA
Location:  34.01°N, 100.3°W
Report Text: KCDS 201017Z AUTO 19004KT 10SM SCT011 BKN018 OVC023 06/03 A3018 RMK AO2 T00560033
Loading
Personal Weather Stations






























Interactive Weather Map New forecast layout! Learn more

10-Day Weather Forecast

Advertisements
Track Severe Weather on mobile